PGT906K LTFH-LTAI
Flight info
| Callsign | PGT906K |
|---|---|
| Flight time | 1h 8m |
| Altitude | 36000 |
| Route | HAVZA1Y HAVZA UW71 BAG/N0444F350 UP29 HISAR HISAR1P |
| Aircraft | A21N/M-SDE2E3FGHIRWXY/LB1 |
Departure
| Time | 2026-05-07 22:27 |
|---|---|
| Airport | Samsun-Çarşamba Airport (LTFH) |
Arrival
| Time | 2026-05-07 23:36 |
|---|---|
| Airport | Antalya International Airport (LTAI) |
| Time | Latitude | Longitude | Altitude | Speed | Heading |
|---|---|---|---|---|---|
| 2026-05-07 21:49 | 41.25867 | 36.55515 | 30 ft | 0 kts | 223° |
| 2026-05-07 22:19 | 41.25878 | 36.55529 | 30 ft | 4 kts | 225° |
| 2026-05-07 22:19 | 41.25896 | 36.55555 | 30 ft | 4 kts | 232° |
| 2026-05-07 22:19 | 41.25911 | 36.55584 | 30 ft | 4 kts | 242° |
| 2026-05-07 22:20 | 41.25917 | 36.55602 | 30 ft | 1 kts | 248° |
| 2026-05-07 22:23 | 41.25917 | 36.55600 | 30 ft | 1 kts | 249° |
| 2026-05-07 22:23 | 41.25917 | 36.55581 | 30 ft | 3 kts | 289° |
| 2026-05-07 22:24 | 41.25937 | 36.55550 | 30 ft | 6 kts | 312° |
| 2026-05-07 22:24 | 41.25970 | 36.55503 | 30 ft | 8 kts | 313° |
| 2026-05-07 22:24 | 41.26015 | 36.55439 | 30 ft | 11 kts | 313° |
| 2026-05-07 22:24 | 41.26070 | 36.55360 | 30 ft | 13 kts | 312° |
| 2026-05-07 22:25 | 41.26133 | 36.55269 | 30 ft | 14 kts | 314° |
| 2026-05-07 22:25 | 41.26208 | 36.55233 | 30 ft | 10 kts | 21° |
| 2026-05-07 22:25 | 41.26269 | 36.55296 | 31 ft | 12 kts | 45° |
| 2026-05-07 22:25 | 41.26334 | 36.55381 | 31 ft | 14 kts | 57° |
| 2026-05-07 22:26 | 41.26330 | 36.55480 | 31 ft | 11 kts | 130° |
| 2026-05-07 22:26 | 41.26273 | 36.55560 | 30 ft | 13 kts | 133° |
| 2026-05-07 22:26 | 41.26138 | 36.55750 | 29 ft | 60 kts | 134° |
| 2026-05-07 22:26 | 41.25696 | 36.56365 | 31 ft | 121 kts | 134° |
| 2026-05-07 22:27 | 41.24993 | 36.57343 | 70 ft | 164 kts | 133° |
| 2026-05-07 22:27 | 41.24197 | 36.58441 | 554 ft | 164 kts | 135° |
| 2026-05-07 22:27 | 41.23357 | 36.59482 | 1124 ft | 167 kts | 138° |
| 2026-05-07 22:27 | 41.22457 | 36.60569 | 1539 ft | 183 kts | 136° |
| 2026-05-07 22:28 | 41.21532 | 36.61833 | 2062 ft | 198 kts | 131° |
| 2026-05-07 22:28 | 41.20628 | 36.63288 | 2677 ft | 211 kts | 128° |
| 2026-05-07 22:28 | 41.19663 | 36.64872 | 3187 ft | 233 kts | 126° |
| 2026-05-07 22:28 | 41.18957 | 36.66872 | 3748 ft | 246 kts | 96° |
| 2026-05-07 22:29 | 41.19254 | 36.69123 | 4453 ft | 259 kts | 62° |
| 2026-05-07 22:29 | 41.20375 | 36.71024 | 5257 ft | 265 kts | 47° |
| 2026-05-07 22:29 | 41.21697 | 36.72773 | 6085 ft | 271 kts | 44° |
| 2026-05-07 22:29 | 41.23111 | 36.74456 | 6953 ft | 275 kts | 36° |
| 2026-05-07 22:30 | 41.24837 | 36.75551 | 7798 ft | 279 kts | 13° |
| 2026-05-07 22:30 | 41.26773 | 36.75662 | 8658 ft | 282 kts | 351° |
| 2026-05-07 22:30 | 41.28608 | 36.74743 | 9518 ft | 286 kts | 327° |
| 2026-05-07 22:30 | 41.30105 | 36.72986 | 10376 ft | 291 kts | 314° |
| 2026-05-07 22:31 | 41.31507 | 36.70910 | 10782 ft | 313 kts | 310° |
| 2026-05-07 22:31 | 41.32743 | 36.68416 | 11097 ft | 335 kts | 296° |
| 2026-05-07 22:31 | 41.33417 | 36.65384 | 11606 ft | 348 kts | 278° |
| 2026-05-07 22:31 | 41.33345 | 36.62146 | 12338 ft | 355 kts | 260° |
| 2026-05-07 22:32 | 41.32536 | 36.59030 | 13092 ft | 360 kts | 246° |
| 2026-05-07 22:32 | 41.31448 | 36.56005 | 13819 ft | 364 kts | 245° |
| 2026-05-07 22:32 | 41.30338 | 36.52957 | 14547 ft | 368 kts | 245° |
| 2026-05-07 22:32 | 41.29248 | 36.49904 | 15228 ft | 372 kts | 246° |
| 2026-05-07 22:33 | 41.28142 | 36.46771 | 15892 ft | 376 kts | 246° |
| 2026-05-07 22:33 | 41.27030 | 36.43598 | 16546 ft | 380 kts | 246° |
| 2026-05-07 22:33 | 41.25911 | 36.40392 | 17172 ft | 384 kts | 246° |
| 2026-05-07 22:33 | 41.24783 | 36.37151 | 17777 ft | 388 kts | 246° |
| 2026-05-07 22:34 | 41.23644 | 36.33881 | 18368 ft | 392 kts | 246° |
| 2026-05-07 22:34 | 41.22494 | 36.30579 | 18951 ft | 396 kts | 246° |
| 2026-05-07 22:34 | 41.21333 | 36.27251 | 19519 ft | 399 kts | 246° |
| 2026-05-07 22:34 | 41.20162 | 36.23895 | 20070 ft | 402 kts | 246° |
| 2026-05-07 22:35 | 41.18979 | 36.20518 | 20607 ft | 405 kts | 247° |
| 2026-05-07 22:35 | 41.17787 | 36.17115 | 21138 ft | 408 kts | 247° |
| 2026-05-07 22:35 | 41.16582 | 36.13687 | 21650 ft | 411 kts | 247° |
| 2026-05-07 22:35 | 41.15368 | 36.10237 | 22145 ft | 415 kts | 247° |
| 2026-05-07 22:36 | 41.14146 | 36.06759 | 22637 ft | 417 kts | 247° |
| 2026-05-07 22:36 | 41.12910 | 36.03254 | 23131 ft | 421 kts | 247° |
| 2026-05-07 22:36 | 41.11665 | 35.99727 | 23609 ft | 424 kts | 247° |
| 2026-05-07 22:36 | 41.10415 | 35.96182 | 24093 ft | 426 kts | 247° |
| 2026-05-07 22:37 | 41.09180 | 35.92595 | 24552 ft | 428 kts | 249° |
| 2026-05-07 22:37 | 41.08078 | 35.88915 | 25006 ft | 431 kts | 251° |
| 2026-05-07 22:37 | 41.06990 | 35.85203 | 25441 ft | 433 kts | 251° |
| 2026-05-07 22:37 | 41.05896 | 35.81466 | 25864 ft | 436 kts | 251° |
| 2026-05-07 22:38 | 41.04794 | 35.77710 | 26269 ft | 439 kts | 251° |
| 2026-05-07 22:38 | 41.03683 | 35.73933 | 26669 ft | 442 kts | 251° |
| 2026-05-07 22:38 | 41.02564 | 35.70130 | 27063 ft | 444 kts | 251° |
| 2026-05-07 22:38 | 41.01464 | 35.66357 | 27427 ft | 447 kts | 251° |
| 2026-05-07 22:39 | 41.00366 | 35.62503 | 27783 ft | 449 kts | 252° |
| 2026-05-07 22:39 | 40.99263 | 35.58622 | 28133 ft | 451 kts | 252° |
| 2026-05-07 22:39 | 40.98151 | 35.54729 | 28495 ft | 453 kts | 252° |
| 2026-05-07 22:39 | 40.97031 | 35.50819 | 28824 ft | 456 kts | 251° |
| 2026-05-07 22:40 | 40.95903 | 35.46887 | 29158 ft | 458 kts | 252° |
| 2026-05-07 22:40 | 40.94767 | 35.42941 | 29468 ft | 460 kts | 252° |
| 2026-05-07 22:40 | 40.93627 | 35.38987 | 29849 ft | 460 kts | 252° |
| 2026-05-07 22:40 | 40.92490 | 35.35047 | 30241 ft | 458 kts | 252° |
| 2026-05-07 22:41 | 40.91353 | 35.31115 | 30642 ft | 457 kts | 252° |
| 2026-05-07 22:41 | 40.90220 | 35.27196 | 31022 ft | 456 kts | 252° |
| 2026-05-07 22:41 | 40.89087 | 35.23284 | 31376 ft | 456 kts | 252° |
| 2026-05-07 22:41 | 40.87954 | 35.19377 | 31739 ft | 455 kts | 252° |
| 2026-05-07 22:42 | 40.86822 | 35.15481 | 32083 ft | 454 kts | 252° |
| 2026-05-07 22:42 | 40.85690 | 35.11594 | 32441 ft | 453 kts | 252° |
| 2026-05-07 22:42 | 40.84558 | 35.07710 | 32781 ft | 452 kts | 252° |
| 2026-05-07 22:42 | 40.83425 | 35.03836 | 33101 ft | 451 kts | 252° |
| 2026-05-07 22:43 | 40.82293 | 34.99978 | 33424 ft | 450 kts | 252° |
| 2026-05-07 22:43 | 40.81168 | 34.96130 | 33714 ft | 449 kts | 252° |
| 2026-05-07 22:43 | 40.80040 | 34.92290 | 33997 ft | 448 kts | 252° |
| 2026-05-07 22:43 | 40.78914 | 34.88455 | 34287 ft | 448 kts | 252° |
| 2026-05-07 22:44 | 40.77787 | 34.84630 | 34580 ft | 447 kts | 252° |
| 2026-05-07 22:44 | 40.76663 | 34.80809 | 34838 ft | 446 kts | 252° |
| 2026-05-07 22:44 | 40.75537 | 34.77000 | 35090 ft | 446 kts | 252° |
| 2026-05-07 22:44 | 40.74413 | 34.73193 | 35304 ft | 445 kts | 252° |
| 2026-05-07 22:45 | 40.73280 | 34.69395 | 35504 ft | 445 kts | 252° |
| 2026-05-07 22:45 | 40.72154 | 34.65664 | 35720 ft | 444 kts | 252° |
| 2026-05-07 22:45 | 40.71010 | 34.61888 | 35923 ft | 444 kts | 252° |
| 2026-05-07 22:45 | 40.69868 | 34.58118 | 36119 ft | 443 kts | 252° |
| 2026-05-07 22:46 | 40.68724 | 34.54346 | 36223 ft | 444 kts | 252° |
| 2026-05-07 22:46 | 40.66432 | 34.46807 | 36211 ft | 442 kts | 251° |
| 2026-05-07 22:47 | 40.64142 | 34.39295 | 36202 ft | 442 kts | 252° |
| 2026-05-07 22:47 | 40.61852 | 34.31790 | 36202 ft | 441 kts | 252° |
| 2026-05-07 22:48 | 40.59564 | 34.24298 | 36198 ft | 441 kts | 252° |
| 2026-05-07 22:48 | 40.57282 | 34.16823 | 36209 ft | 440 kts | 252° |
| 2026-05-07 22:49 | 40.54989 | 34.09362 | 36210 ft | 440 kts | 252° |
| 2026-05-07 22:49 | 40.52689 | 34.01910 | 36210 ft | 439 kts | 252° |
| 2026-05-07 22:50 | 40.50394 | 33.94469 | 36216 ft | 438 kts | 253° |
| 2026-05-07 22:50 | 40.48488 | 33.86947 | 36218 ft | 437 kts | 256° |
| 2026-05-07 22:51 | 40.46605 | 33.79310 | 36219 ft | 437 kts | 256° |
| 2026-05-07 22:51 | 40.44709 | 33.71721 | 36221 ft | 437 kts | 255° |
| 2026-05-07 22:52 | 40.42368 | 33.64317 | 36219 ft | 440 kts | 250° |
| 2026-05-07 22:52 | 40.39912 | 33.57018 | 36221 ft | 440 kts | 250° |
| 2026-05-07 22:53 | 40.37441 | 33.49681 | 36229 ft | 440 kts | 250° |
| 2026-05-07 22:53 | 40.34955 | 33.42291 | 36228 ft | 440 kts | 250° |
| 2026-05-07 22:54 | 40.32479 | 33.34950 | 36230 ft | 441 kts | 250° |
| 2026-05-07 22:54 | 40.30006 | 33.27651 | 36230 ft | 441 kts | 250° |
| 2026-05-07 22:55 | 40.27517 | 33.20318 | 36227 ft | 441 kts | 250° |
| 2026-05-07 22:55 | 40.25019 | 33.12986 | 36231 ft | 441 kts | 250° |
| 2026-05-07 22:56 | 40.21715 | 33.06147 | 36231 ft | 449 kts | 237° |
| 2026-05-07 22:56 | 40.17898 | 32.99658 | 36233 ft | 449 kts | 237° |
| 2026-05-07 22:57 | 40.14103 | 32.93168 | 36229 ft | 449 kts | 237° |
| 2026-05-07 22:57 | 40.10314 | 32.86671 | 36231 ft | 449 kts | 237° |
| 2026-05-07 22:58 | 40.06086 | 32.80614 | 36225 ft | 459 kts | 221° |
| 2026-05-07 22:58 | 40.01407 | 32.77103 | 36234 ft | 465 kts | 211° |
| 2026-05-07 22:59 | 39.95649 | 32.73346 | 36233 ft | 465 kts | 211° |
| 2026-05-07 22:59 | 39.89890 | 32.69519 | 36232 ft | 465 kts | 212° |
| 2026-05-07 23:00 | 39.84132 | 32.65668 | 36230 ft | 465 kts | 212° |
| 2026-05-07 23:00 | 39.78382 | 32.61831 | 36230 ft | 465 kts | 212° |
| 2026-05-07 23:01 | 39.72627 | 32.57998 | 36230 ft | 465 kts | 212° |
| 2026-05-07 23:01 | 39.66871 | 32.54173 | 36230 ft | 464 kts | 212° |
| 2026-05-07 23:02 | 39.61118 | 32.50354 | 36232 ft | 465 kts | 212° |
| 2026-05-07 23:02 | 39.55361 | 32.46541 | 36231 ft | 465 kts | 211° |
| 2026-05-07 23:03 | 39.49603 | 32.42735 | 36230 ft | 465 kts | 211° |
| 2026-05-07 23:03 | 39.43832 | 32.38933 | 36231 ft | 465 kts | 211° |
| 2026-05-07 23:04 | 39.38071 | 32.35144 | 36237 ft | 464 kts | 212° |
| 2026-05-07 23:04 | 39.32311 | 32.31377 | 36240 ft | 464 kts | 211° |
| 2026-05-07 23:05 | 39.26535 | 32.27617 | 36239 ft | 465 kts | 211° |
| 2026-05-07 23:05 | 39.20770 | 32.23869 | 36240 ft | 464 kts | 211° |
| 2026-05-07 23:06 | 39.15004 | 32.20125 | 36241 ft | 464 kts | 211° |
| 2026-05-07 23:06 | 39.09238 | 32.16390 | 36240 ft | 463 kts | 211° |
| 2026-05-07 23:07 | 39.03479 | 32.12666 | 36240 ft | 463 kts | 211° |
| 2026-05-07 23:07 | 38.97789 | 32.08995 | 36234 ft | 454 kts | 211° |
| 2026-05-07 23:08 | 38.92076 | 32.05309 | 36244 ft | 463 kts | 211° |
| 2026-05-07 23:08 | 38.86313 | 32.01601 | 36243 ft | 463 kts | 211° |
| 2026-05-07 23:09 | 38.80596 | 31.97932 | 36242 ft | 462 kts | 212° |
| 2026-05-07 23:09 | 38.74848 | 31.94247 | 36241 ft | 462 kts | 212° |
| 2026-05-07 23:10 | 38.69156 | 31.90609 | 36234 ft | 452 kts | 212° |
| 2026-05-07 23:10 | 38.63479 | 31.86978 | 36199 ft | 456 kts | 212° |
| 2026-05-07 23:10 | 38.60646 | 31.85172 | 35807 ft | 455 kts | 212° |
| 2026-05-07 23:11 | 38.57824 | 31.83374 | 35269 ft | 453 kts | 212° |
| 2026-05-07 23:11 | 38.55000 | 31.81575 | 34607 ft | 454 kts | 212° |
| 2026-05-07 23:11 | 38.52174 | 31.79776 | 33916 ft | 456 kts | 212° |
| 2026-05-07 23:11 | 38.49328 | 31.77965 | 33225 ft | 457 kts | 212° |
| 2026-05-07 23:12 | 38.46474 | 31.76152 | 32539 ft | 459 kts | 212° |
| 2026-05-07 23:12 | 38.43615 | 31.74338 | 31893 ft | 459 kts | 212° |
| 2026-05-07 23:12 | 38.40757 | 31.72527 | 31290 ft | 458 kts | 212° |
| 2026-05-07 23:12 | 38.37904 | 31.70721 | 30715 ft | 457 kts | 212° |
| 2026-05-07 23:13 | 38.35062 | 31.68923 | 30137 ft | 456 kts | 212° |
| 2026-05-07 23:13 | 38.32224 | 31.67129 | 29549 ft | 454 kts | 212° |
| 2026-05-07 23:13 | 38.29402 | 31.65346 | 28973 ft | 452 kts | 212° |
| 2026-05-07 23:13 | 38.26591 | 31.63571 | 28394 ft | 450 kts | 212° |
| 2026-05-07 23:14 | 38.23792 | 31.61805 | 27835 ft | 448 kts | 212° |
| 2026-05-07 23:14 | 38.21006 | 31.60050 | 27242 ft | 446 kts | 212° |
| 2026-05-07 23:14 | 38.18225 | 31.58298 | 26649 ft | 445 kts | 211° |
| 2026-05-07 23:14 | 38.15458 | 31.56558 | 26073 ft | 443 kts | 211° |
| 2026-05-07 23:15 | 38.12694 | 31.54840 | 25482 ft | 442 kts | 209° |
| 2026-05-07 23:15 | 38.09770 | 31.53679 | 25047 ft | 441 kts | 192° |
| 2026-05-07 23:15 | 38.06722 | 31.53455 | 24772 ft | 437 kts | 184° |
| 2026-05-07 23:15 | 38.03690 | 31.53417 | 24512 ft | 435 kts | 184° |
| 2026-05-07 23:16 | 38.00669 | 31.53331 | 24248 ft | 434 kts | 185° |
| 2026-05-07 23:16 | 37.97666 | 31.53187 | 23996 ft | 431 kts | 186° |
| 2026-05-07 23:16 | 37.94679 | 31.53012 | 23745 ft | 429 kts | 186° |
| 2026-05-07 23:16 | 37.91703 | 31.52824 | 23494 ft | 427 kts | 186° |
| 2026-05-07 23:17 | 37.88748 | 31.52636 | 23242 ft | 424 kts | 186° |
| 2026-05-07 23:17 | 37.85801 | 31.52449 | 22989 ft | 423 kts | 186° |
| 2026-05-07 23:17 | 37.82875 | 31.52263 | 22576 ft | 420 kts | 186° |
| 2026-05-07 23:17 | 37.79964 | 31.52079 | 22050 ft | 418 kts | 186° |
| 2026-05-07 23:18 | 37.77067 | 31.51861 | 21487 ft | 416 kts | 188° |
| 2026-05-07 23:18 | 37.74191 | 31.51481 | 20939 ft | 415 kts | 190° |
| 2026-05-07 23:18 | 37.71328 | 31.51077 | 20358 ft | 412 kts | 190° |
| 2026-05-07 23:18 | 37.68494 | 31.50675 | 19805 ft | 408 kts | 189° |
| 2026-05-07 23:19 | 37.65688 | 31.50279 | 19276 ft | 404 kts | 189° |
| 2026-05-07 23:19 | 37.62950 | 31.49894 | 18786 ft | 399 kts | 189° |
| 2026-05-07 23:19 | 37.60210 | 31.49510 | 18313 ft | 393 kts | 189° |
| 2026-05-07 23:19 | 37.57513 | 31.49131 | 17860 ft | 387 kts | 189° |
| 2026-05-07 23:20 | 37.54845 | 31.48757 | 17360 ft | 383 kts | 189° |
| 2026-05-07 23:20 | 37.52172 | 31.48382 | 16862 ft | 380 kts | 189° |
| 2026-05-07 23:20 | 37.49598 | 31.48021 | 16407 ft | 375 kts | 189° |
| 2026-05-07 23:20 | 37.46968 | 31.47652 | 15943 ft | 376 kts | 189° |
| 2026-05-07 23:21 | 37.44397 | 31.47292 | 15501 ft | 377 kts | 189° |
| 2026-05-07 23:21 | 37.41790 | 31.46929 | 15066 ft | 377 kts | 188° |
| 2026-05-07 23:21 | 37.39185 | 31.46567 | 14617 ft | 377 kts | 188° |
| 2026-05-07 23:21 | 37.36584 | 31.46205 | 14176 ft | 376 kts | 188° |
| 2026-05-07 23:22 | 37.33986 | 31.45843 | 13736 ft | 375 kts | 188° |
| 2026-05-07 23:22 | 37.31410 | 31.45485 | 13283 ft | 369 kts | 188° |
| 2026-05-07 23:22 | 37.28881 | 31.45135 | 12860 ft | 363 kts | 188° |
| 2026-05-07 23:22 | 37.26398 | 31.44791 | 12483 ft | 355 kts | 187° |
| 2026-05-07 23:23 | 37.23964 | 31.44454 | 12099 ft | 349 kts | 187° |
| 2026-05-07 23:23 | 37.21567 | 31.44122 | 11690 ft | 344 kts | 187° |
| 2026-05-07 23:23 | 37.19200 | 31.43795 | 11313 ft | 342 kts | 187° |
| 2026-05-07 23:23 | 37.16837 | 31.43467 | 10951 ft | 341 kts | 187° |
| 2026-05-07 23:24 | 37.14513 | 31.43146 | 10734 ft | 330 kts | 187° |
| 2026-05-07 23:24 | 37.12292 | 31.42714 | 10602 ft | 316 kts | 197° |
| 2026-05-07 23:24 | 37.10388 | 31.41513 | 10434 ft | 302 kts | 221° |
| 2026-05-07 23:24 | 37.08956 | 31.39664 | 10120 ft | 293 kts | 232° |
| 2026-05-07 23:25 | 37.07668 | 31.37706 | 9753 ft | 290 kts | 232° |
| 2026-05-07 23:25 | 37.06392 | 31.35764 | 9398 ft | 287 kts | 232° |
| 2026-05-07 23:25 | 37.05123 | 31.33858 | 9037 ft | 284 kts | 231° |
| 2026-05-07 23:25 | 37.03860 | 31.31985 | 8691 ft | 280 kts | 231° |
| 2026-05-07 23:26 | 37.02602 | 31.30122 | 8344 ft | 280 kts | 231° |
| 2026-05-07 23:26 | 37.01340 | 31.28256 | 8002 ft | 281 kts | 231° |
| 2026-05-07 23:26 | 37.00074 | 31.26389 | 7680 ft | 282 kts | 231° |
| 2026-05-07 23:26 | 36.98802 | 31.24519 | 7353 ft | 283 kts | 231° |
| 2026-05-07 23:27 | 36.96242 | 31.20755 | 6668 ft | 284 kts | 231° |
| 2026-05-07 23:27 | 36.94957 | 31.18868 | 6316 ft | 286 kts | 230° |
| 2026-05-07 23:27 | 36.93671 | 31.16981 | 5976 ft | 284 kts | 230° |
| 2026-05-07 23:28 | 36.92395 | 31.15112 | 5636 ft | 281 kts | 230° |
| 2026-05-07 23:28 | 36.91132 | 31.13261 | 5312 ft | 278 kts | 230° |
| 2026-05-07 23:28 | 36.89887 | 31.11438 | 4994 ft | 275 kts | 230° |
| 2026-05-07 23:28 | 36.88645 | 31.09620 | 4662 ft | 276 kts | 230° |
| 2026-05-07 23:29 | 36.87402 | 31.07799 | 4323 ft | 275 kts | 230° |
| 2026-05-07 23:29 | 36.86166 | 31.05993 | 3980 ft | 272 kts | 230° |
| 2026-05-07 23:29 | 36.84940 | 31.04201 | 3650 ft | 270 kts | 230° |
| 2026-05-07 23:29 | 36.83728 | 31.02432 | 3323 ft | 266 kts | 230° |
| 2026-05-07 23:30 | 36.82528 | 31.00683 | 3000 ft | 264 kts | 230° |
| 2026-05-07 23:30 | 36.81339 | 30.98949 | 2686 ft | 261 kts | 230° |
| 2026-05-07 23:30 | 36.80164 | 30.97237 | 2381 ft | 259 kts | 230° |
| 2026-05-07 23:30 | 36.78992 | 30.95528 | 2079 ft | 259 kts | 230° |
| 2026-05-07 23:31 | 36.77821 | 30.93818 | 1774 ft | 260 kts | 231° |
| 2026-05-07 23:31 | 36.76926 | 30.91897 | 1510 ft | 254 kts | 256° |
| 2026-05-07 23:31 | 36.76853 | 30.89803 | 1461 ft | 238 kts | 276° |
| 2026-05-07 23:31 | 36.77062 | 30.87819 | 1465 ft | 225 kts | 278° |
| 2026-05-07 23:32 | 36.77276 | 30.85902 | 1467 ft | 218 kts | 277° |
| 2026-05-07 23:32 | 36.77464 | 30.84101 | 1461 ft | 203 kts | 277° |
| 2026-05-07 23:32 | 36.77647 | 30.82386 | 1466 ft | 189 kts | 280° |
| 2026-05-07 23:32 | 36.77893 | 30.80878 | 1498 ft | 167 kts | 283° |
| 2026-05-07 23:33 | 36.78487 | 30.79756 | 1485 ft | 158 kts | 327° |
| 2026-05-07 23:33 | 36.79521 | 30.79539 | 1500 ft | 144 kts | 6° |
| 2026-05-07 23:33 | 36.80494 | 30.79712 | 1501 ft | 140 kts | 4° |
| 2026-05-07 23:33 | 36.81462 | 30.79844 | 1474 ft | 140 kts | 5° |
| 2026-05-07 23:34 | 36.82432 | 30.79952 | 1378 ft | 140 kts | 5° |
| 2026-05-07 23:34 | 36.83393 | 30.80096 | 1186 ft | 139 kts | 6° |
| 2026-05-07 23:34 | 36.84354 | 30.80222 | 995 ft | 138 kts | 5° |
| 2026-05-07 23:34 | 36.85310 | 30.80342 | 797 ft | 138 kts | 6° |
| 2026-05-07 23:35 | 36.86258 | 30.80482 | 582 ft | 137 kts | 5° |
| 2026-05-07 23:35 | 36.87207 | 30.80604 | 399 ft | 137 kts | 6° |
| 2026-05-07 23:35 | 36.88151 | 30.80733 | 238 ft | 136 kts | 6° |
| 2026-05-07 23:35 | 36.89035 | 30.80856 | 196 ft | 115 kts | 6° |
| 2026-05-07 23:36 | 36.89538 | 30.80924 | 204 ft | 40 kts | 6° |
| 2026-05-07 23:36 | 36.89765 | 30.80951 | 196 ft | 16 kts | 2° |
| 2026-05-07 23:36 | 36.89883 | 30.80946 | 199 ft | 18 kts | 346° |
| 2026-05-07 23:36 | 36.89993 | 30.80894 | 203 ft | 9 kts | 334° |
| 2026-05-07 23:37 | 36.90055 | 30.80859 | 206 ft | 11 kts | 336° |
| 2026-05-07 23:37 | 36.90131 | 30.80817 | 205 ft | 13 kts | 336° |
| 2026-05-07 23:37 | 36.90220 | 30.80768 | 201 ft | 15 kts | 336° |
| 2026-05-07 23:37 | 36.90305 | 30.80714 | 211 ft | 9 kts | 310° |
| 2026-05-07 23:38 | 36.90322 | 30.80634 | 207 ft | 11 kts | 276° |
| 2026-05-07 23:38 | 36.90331 | 30.80530 | 207 ft | 13 kts | 276° |
| 2026-05-07 23:38 | 36.90342 | 30.80409 | 210 ft | 15 kts | 276° |
| 2026-05-07 23:38 | 36.90354 | 30.80271 | 199 ft | 17 kts | 276° |
| 2026-05-07 23:39 | 36.90368 | 30.80117 | 197 ft | 19 kts | 276° |
| 2026-05-07 23:39 | 36.90383 | 30.79953 | 201 ft | 20 kts | 276° |
| 2026-05-07 23:39 | 36.90396 | 30.79809 | 208 ft | 14 kts | 276° |
| 2026-05-07 23:39 | 36.90423 | 30.79708 | 198 ft | 12 kts | 316° |
| 2026-05-07 23:40 | 36.90506 | 30.79697 | 204 ft | 13 kts | 7° |
| 2026-05-07 23:40 | 36.90599 | 30.79712 | 199 ft | 14 kts | 8° |
| 2026-05-07 23:40 | 36.90699 | 30.79723 | 197 ft | 15 kts | 4° |
| 2026-05-07 23:40 | 36.90806 | 30.79737 | 197 ft | 16 kts | 7° |
| 2026-05-07 23:41 | 36.90885 | 30.79770 | 206 ft | 11 kts | 42° |
| 2026-05-07 23:41 | 36.90931 | 30.79839 | 207 ft | 11 kts | 23° |
| 2026-05-07 23:41 | 36.91005 | 30.79854 | 206 ft | 11 kts | 7° |
| 2026-05-07 23:41 | 36.91088 | 30.79866 | 207 ft | 12 kts | 6° |
| 2026-05-07 23:42 | 36.91177 | 30.79878 | 207 ft | 13 kts | 7° |
| 2026-05-07 23:42 | 36.91270 | 30.79891 | 203 ft | 5 kts | 6° |
| 2026-05-07 23:42 | 36.91304 | 30.79903 | 199 ft | 6 kts | 46° |
| 2026-05-07 23:42 | 36.91307 | 30.79951 | 196 ft | 5 kts | 100° |
| 2026-05-07 23:43 | 36.91300 | 30.80000 | 196 ft | 6 kts | 95° |
| 2026-05-07 23:43 | 36.91296 | 30.80040 | 196 ft | 3 kts | 96° |
| 2026-05-07 23:43 | 36.91296 | 30.80049 | 196 ft | 0 kts | 96° |
| 2026-05-07 23:43 | 36.91294 | 30.80063 | 205 ft | 2 kts | 96° |
| 2026-05-07 23:44 | 36.91294 | 30.80064 | 196 ft | 0 kts | 96° |